sensor_id;sensor_type;location;lat;lon;timestamp;temperature;humidity
28087;DHT22;15392;48.912;8.380;2023-05-07T00:01:56;21.80;44.90
28087;DHT22;15392;48.912;8.380;2023-05-07T00:04:22;21.80;44.90
28087;DHT22;15392;48.912;8.380;2023-05-07T00:06:48;21.80;44.90
28087;DHT22;15392;48.912;8.380;2023-05-07T00:09:13;21.70;45.00
28087;DHT22;15392;48.912;8.380;2023-05-07T00:11:39;21.70;45.00
28087;DHT22;15392;48.912;8.380;2023-05-07T00:14:05;21.60;45.00
28087;DHT22;15392;48.912;8.380;2023-05-07T00:16:31;21.60;45.00
28087;DHT22;15392;48.912;8.380;2023-05-07T00:18:57;21.50;45.10
28087;DHT22;15392;48.912;8.380;2023-05-07T00:21:23;21.50;45.10
28087;DHT22;15392;48.912;8.380;2023-05-07T00:23:52;21.50;45.20
28087;DHT22;15392;48.912;8.380;2023-05-07T00:26:19;21.40;45.20
28087;DHT22;15392;48.912;8.380;2023-05-07T00:28:44;21.40;45.20
28087;DHT22;15392;48.912;8.380;2023-05-07T00:31:10;21.40;45.20
28087;DHT22;15392;48.912;8.380;2023-05-07T00:33:36;21.30;45.90
28087;DHT22;15392;48.912;8.380;2023-05-07T00:36:01;21.30;45.30
28087;DHT22;15392;48.912;8.380;2023-05-07T00:38:27;21.30;45.30
28087;DHT22;15392;48.912;8.380;2023-05-07T00:40:53;21.20;45.30
28087;DHT22;15392;48.912;8.380;2023-05-07T00:43:19;21.20;45.30
28087;DHT22;15392;48.912;8.380;2023-05-07T00:45:44;21.20;45.40
28087;DHT22;15392;48.912;8.380;2023-05-07T00:48:11;21.10;45.30
28087;DHT22;15392;48.912;8.380;2023-05-07T00:50:37;21.10;45.40
28087;DHT22;15392;48.912;8.380;2023-05-07T00:53:02;21.10;45.40
28087;DHT22;15392;48.912;8.380;2023-05-07T00:55:29;21.00;45.50
28087;DHT22;15392;48.912;8.380;2023-05-07T00:57:55;21.00;45.60
28087;DHT22;15392;48.912;8.380;2023-05-07T01:00:21;21.00;45.70
28087;DHT22;15392;48.912;8.380;2023-05-07T01:02:47;20.90;45.70
28087;DHT22;15392;48.912;8.380;2023-05-07T01:05:15;20.90;45.80
28087;DHT22;15392;48.912;8.380;2023-05-07T01:07:42;20.80;45.70
28087;DHT22;15392;48.912;8.380;2023-05-07T01:10:09;20.80;45.70
28087;DHT22;15392;48.912;8.380;2023-05-07T01:12:37;20.70;45.70
28087;DHT22;15392;48.912;8.380;2023-05-07T01:15:04;20.70;45.80
28087;DHT22;15392;48.912;8.380;2023-05-07T01:17:39;20.60;45.90
28087;DHT22;15392;48.912;8.380;2023-05-07T01:20:06;20.60;46.20
28087;DHT22;15392;48.912;8.380;2023-05-07T01:22:34;20.60;46.00
28087;DHT22;15392;48.912;8.380;2023-05-07T01:25:04;20.60;46.10
28087;DHT22;15392;48.912;8.380;2023-05-07T01:27:31;20.50;46.10
28087;DHT22;15392;48.912;8.380;2023-05-07T01:29:59;20.50;46.10
28087;DHT22;15392;48.912;8.380;2023-05-07T01:32:50;20.50;46.10
28087;DHT22;15392;48.912;8.380;2023-05-07T01:35:20;20.40;46.60
28087;DHT22;15392;48.912;8.380;2023-05-07T01:37:47;20.40;46.20
28087;DHT22;15392;48.912;8.380;2023-05-07T01:40:14;20.30;46.20
28087;DHT22;15392;48.912;8.380;2023-05-07T01:42:42;20.30;45.90
28087;DHT22;15392;48.912;8.380;2023-05-07T01:45:09;20.20;46.10
28087;DHT22;15392;48.912;8.380;2023-05-07T01:47:36;20.20;46.30
28087;DHT22;15392;48.912;8.380;2023-05-07T01:50:05;20.20;46.40
28087;DHT22;15392;48.912;8.380;2023-05-07T01:52:31;20.10;46.40
28087;DHT22;15392;48.912;8.380;2023-05-07T01:54:57;20.10;46.50
28087;DHT22;15392;48.912;8.380;2023-05-07T01:57:23;20.10;46.60
28087;DHT22;15392;48.912;8.380;2023-05-07T01:59:48;20.10;46.70
28087;DHT22;15392;48.912;8.380;2023-05-07T02:02:14;20.00;46.80
28087;DHT22;15392;48.912;8.380;2023-05-07T02:04:40;20.00;46.70
28087;DHT22;15392;48.912;8.380;2023-05-07T02:07:06;20.00;46.90
28087;DHT22;15392;48.912;8.380;2023-05-07T02:09:31;20.00;46.80
28087;DHT22;15392;48.912;8.380;2023-05-07T02:11:57;19.90;46.90
28087;DHT22;15392;48.912;8.380;2023-05-07T02:14:23;19.90;47.00
28087;DHT22;15392;48.912;8.380;2023-05-07T02:16:49;19.90;47.00
28087;DHT22;15392;48.912;8.380;2023-05-07T02:19:14;19.90;46.90
28087;DHT22;15392;48.912;8.380;2023-05-07T02:21:40;19.80;46.90
28087;DHT22;15392;48.912;8.380;2023-05-07T02:24:06;19.80;46.90
28087;DHT22;15392;48.912;8.380;2023-05-07T02:26:32;19.80;46.90
28087;DHT22;15392;48.912;8.380;2023-05-07T02:28:57;19.80;46.90
28087;DHT22;15392;48.912;8.380;2023-05-07T02:31:23;19.70;46.90
28087;DHT22;15392;48.912;8.380;2023-05-07T02:33:49;19.70;46.90
28087;DHT22;15392;48.912;8.380;2023-05-07T02:36:15;19.60;46.90
28087;DHT22;15392;48.912;8.380;2023-05-07T02:38:41;19.70;47.00
28087;DHT22;15392;48.912;8.380;2023-05-07T02:41:06;19.70;47.10
28087;DHT22;15392;48.912;8.380;2023-05-07T02:43:38;19.60;47.10
28087;DHT22;15392;48.912;8.380;2023-05-07T02:46:19;19.60;47.40
28087;DHT22;15392;48.912;8.380;2023-05-07T02:48:45;19.60;47.20
28087;DHT22;15392;48.912;8.380;2023-05-07T02:51:11;19.60;47.20
28087;DHT22;15392;48.912;8.380;2023-05-07T02:53:37;19.60;47.20
28087;DHT22;15392;48.912;8.380;2023-05-07T02:56:02;19.60;47.20
28087;DHT22;15392;48.912;8.380;2023-05-07T02:58:28;19.50;47.10
28087;DHT22;15392;48.912;8.380;2023-05-07T03:00:54;19.50;47.10
28087;DHT22;15392;48.912;8.380;2023-05-07T03:03:20;19.50;47.10
28087;DHT22;15392;48.912;8.380;2023-05-07T03:05:46;19.40;47.10
28087;DHT22;15392;48.912;8.380;2023-05-07T03:08:13;19.40;47.10
28087;DHT22;15392;48.912;8.380;2023-05-07T03:10:38;19.40;47.20
28087;DHT22;15392;48.912;8.380;2023-05-07T03:13:05;19.30;47.20
28087;DHT22;15392;48.912;8.380;2023-05-07T03:15:30;19.30;47.30
28087;DHT22;15392;48.912;8.380;2023-05-07T03:17:56;19.30;47.40
28087;DHT22;15392;48.912;8.380;2023-05-07T03:20:22;19.30;47.50
28087;DHT22;15392;48.912;8.380;2023-05-07T03:22:48;19.30;47.50
28087;DHT22;15392;48.912;8.380;2023-05-07T03:25:13;19.30;47.50
28087;DHT22;15392;48.912;8.380;2023-05-07T03:27:40;19.20;47.50
28087;DHT22;15392;48.912;8.380;2023-05-07T03:30:08;19.20;47.50
28087;DHT22;15392;48.912;8.380;2023-05-07T03:32:34;19.20;47.50
28087;DHT22;15392;48.912;8.380;2023-05-07T03:35:01;19.20;47.50
28087;DHT22;15392;48.912;8.380;2023-05-07T03:37:27;19.20;47.50
28087;DHT22;15392;48.912;8.380;2023-05-07T03:39:53;19.20;47.50
28087;DHT22;15392;48.912;8.380;2023-05-07T03:42:19;19.10;47.50
28087;DHT22;15392;48.912;8.380;2023-05-07T03:44:44;19.10;47.60
28087;DHT22;15392;48.912;8.380;2023-05-07T03:47:10;19.10;47.50
28087;DHT22;15392;48.912;8.380;2023-05-07T03:49:36;19.10;47.50
28087;DHT22;15392;48.912;8.380;2023-05-07T03:52:02;19.10;47.60
28087;DHT22;15392;48.912;8.380;2023-05-07T03:54:28;19.10;47.60
28087;DHT22;15392;48.912;8.380;2023-05-07T03:56:55;19.00;47.70
28087;DHT22;15392;48.912;8.380;2023-05-07T03:59:22;19.00;47.60
28087;DHT22;15392;48.912;8.380;2023-05-07T04:01:47;19.00;47.80
28087;DHT22;15392;48.912;8.380;2023-05-07T04:04:14;19.00;47.70
28087;DHT22;15392;48.912;8.380;2023-05-07T04:06:41;19.00;47.80
28087;DHT22;15392;48.912;8.380;2023-05-07T04:09:07;19.00;47.80
28087;DHT22;15392;48.912;8.380;2023-05-07T04:11:33;18.90;47.70
28087;DHT22;15392;48.912;8.380;2023-05-07T04:13:58;18.90;47.80
28087;DHT22;15392;48.912;8.380;2023-05-07T04:16:24;18.90;47.80
28087;DHT22;15392;48.912;8.380;2023-05-07T04:18:50;18.90;47.90
28087;DHT22;15392;48.912;8.380;2023-05-07T04:21:20;18.90;47.90
28087;DHT22;15392;48.912;8.380;2023-05-07T04:23:47;18.90;48.10
28087;DHT22;15392;48.912;8.380;2023-05-07T04:26:14;18.90;48.10
28087;DHT22;15392;48.912;8.380;2023-05-07T04:28:40;18.90;48.10
28087;DHT22;15392;48.912;8.380;2023-05-07T04:31:06;18.90;48.10
28087;DHT22;15392;48.912;8.380;2023-05-07T04:33:33;18.90;48.10
28087;DHT22;15392;48.912;8.380;2023-05-07T04:36:01;18.90;48.00
28087;DHT22;15392;48.912;8.380;2023-05-07T04:38:29;18.80;48.20
28087;DHT22;15392;48.912;8.380;2023-05-07T04:40:57;18.80;48.10
28087;DHT22;15392;48.912;8.380;2023-05-07T04:43:23;18.80;48.00
28087;DHT22;15392;48.912;8.380;2023-05-07T04:45:51;18.90;48.30
28087;DHT22;15392;48.912;8.380;2023-05-07T04:48:17;18.90;48.30
28087;DHT22;15392;48.912;8.380;2023-05-07T04:50:47;18.90;48.30
28087;DHT22;15392;48.912;8.380;2023-05-07T04:53:13;18.90;48.30
28087;DHT22;15392;48.912;8.380;2023-05-07T04:55:40;18.90;48.60
28087;DHT22;15392;48.912;8.380;2023-05-07T04:58:06;18.90;48.40
28087;DHT22;15392;48.912;8.380;2023-05-07T05:00:32;18.90;48.30
28087;DHT22;15392;48.912;8.380;2023-05-07T05:02:58;18.90;48.20
28087;DHT22;15392;48.912;8.380;2023-05-07T05:05:24;18.90;48.20
28087;DHT22;15392;48.912;8.380;2023-05-07T05:07:50;18.90;48.20
28087;DHT22;15392;48.912;8.380;2023-05-07T05:10:17;18.90;48.20
28087;DHT22;15392;48.912;8.380;2023-05-07T05:12:43;18.90;48.20
28087;DHT22;15392;48.912;8.380;2023-05-07T05:15:11;18.90;48.30
28087;DHT22;15392;48.912;8.380;2023-05-07T05:17:38;18.90;49.10
28087;DHT22;15392;48.912;8.380;2023-05-07T05:20:05;18.90;48.40
28087;DHT22;15392;48.912;8.380;2023-05-07T05:22:31;18.90;48.50
28087;DHT22;15392;48.912;8.380;2023-05-07T05:24:57;18.90;48.50
28087;DHT22;15392;48.912;8.380;2023-05-07T05:27:23;18.90;48.40
28087;DHT22;15392;48.912;8.380;2023-05-07T05:29:49;18.90;48.50
28087;DHT22;15392;48.912;8.380;2023-05-07T05:32:15;19.00;48.60
28087;DHT22;15392;48.912;8.380;2023-05-07T05:34:40;19.00;48.60
28087;DHT22;15392;48.912;8.380;2023-05-07T05:37:06;19.00;48.60
28087;DHT22;15392;48.912;8.380;2023-05-07T05:39:32;19.10;48.70
28087;DHT22;15392;48.912;8.380;2023-05-07T05:41:58;19.10;48.70
28087;DHT22;15392;48.912;8.380;2023-05-07T05:44:23;19.10;48.60
28087;DHT22;15392;48.912;8.380;2023-05-07T05:46:49;19.20;48.70
28087;DHT22;15392;48.912;8.380;2023-05-07T05:49:15;19.20;48.70
28087;DHT22;15392;48.912;8.380;2023-05-07T05:51:41;19.20;48.70
28087;DHT22;15392;48.912;8.380;2023-05-07T05:54:07;19.20;48.60
28087;DHT22;15392;48.912;8.380;2023-05-07T05:56:33;19.30;48.60
28087;DHT22;15392;48.912;8.380;2023-05-07T05:58:58;19.30;48.50
28087;DHT22;15392;48.912;8.380;2023-05-07T06:01:25;19.30;48.50
28087;DHT22;15392;48.912;8.380;2023-05-07T06:03:52;19.40;48.50
28087;DHT22;15392;48.912;8.380;2023-05-07T06:06:18;19.40;48.60
28087;DHT22;15392;48.912;8.380;2023-05-07T06:08:43;19.50;48.60
28087;DHT22;15392;48.912;8.380;2023-05-07T06:11:09;19.50;48.60
28087;DHT22;15392;48.912;8.380;2023-05-07T06:13:35;19.60;48.70
28087;DHT22;15392;48.912;8.380;2023-05-07T06:16:01;19.60;48.60
28087;DHT22;15392;48.912;8.380;2023-05-07T06:18:27;19.70;48.70
28087;DHT22;15392;48.912;8.380;2023-05-07T06:20:53;19.70;48.70
28087;DHT22;15392;48.912;8.380;2023-05-07T06:23:18;19.80;48.80
28087;DHT22;15392;48.912;8.380;2023-05-07T06:25:50;19.90;48.80
28087;DHT22;15392;48.912;8.380;2023-05-07T06:28:16;19.90;49.10
28087;DHT22;15392;48.912;8.380;2023-05-07T06:30:42;20.00;48.70
28087;DHT22;15392;48.912;8.380;2023-05-07T06:33:08;20.10;48.60
28087;DHT22;15392;48.912;8.380;2023-05-07T06:35:34;20.10;48.60
28087;DHT22;15392;48.912;8.380;2023-05-07T06:38:00;20.20;48.60
28087;DHT22;15392;48.912;8.380;2023-05-07T06:40:26;20.30;48.60
28087;DHT22;15392;48.912;8.380;2023-05-07T06:42:53;20.40;48.50
28087;DHT22;15392;48.912;8.380;2023-05-07T06:45:19;20.50;48.40
28087;DHT22;15392;48.912;8.380;2023-05-07T06:47:45;20.60;48.30
28087;DHT22;15392;48.912;8.380;2023-05-07T06:50:11;20.60;48.20
28087;DHT22;15392;48.912;8.380;2023-05-07T06:52:37;20.70;48.10
28087;DHT22;15392;48.912;8.380;2023-05-07T06:55:03;20.80;48.00
28087;DHT22;15392;48.912;8.380;2023-05-07T06:57:30;20.80;48.00
28087;DHT22;15392;48.912;8.380;2023-05-07T06:59:55;20.90;47.90
28087;DHT22;15392;48.912;8.380;2023-05-07T07:02:21;21.00;47.80
28087;DHT22;15392;48.912;8.380;2023-05-07T07:04:47;21.00;47.80
28087;DHT22;15392;48.912;8.380;2023-05-07T07:07:13;21.00;47.80
28087;DHT22;15392;48.912;8.380;2023-05-07T07:09:39;21.10;47.90
28087;DHT22;15392;48.912;8.380;2023-05-07T07:12:04;21.10;48.00
28087;DHT22;15392;48.912;8.380;2023-05-07T07:14:30;21.20;47.90
28087;DHT22;15392;48.912;8.380;2023-05-07T07:16:56;21.20;47.90
28087;DHT22;15392;48.912;8.380;2023-05-07T07:19:22;21.20;47.90
28087;DHT22;15392;48.912;8.380;2023-05-07T07:21:48;21.20;47.90
28087;DHT22;15392;48.912;8.380;2023-05-07T07:24:14;21.20;47.90
28087;DHT22;15392;48.912;8.380;2023-05-07T07:26:47;21.30;47.90
28087;DHT22;15392;48.912;8.380;2023-05-07T07:29:13;21.30;48.00
28087;DHT22;15392;48.912;8.380;2023-05-07T07:31:39;21.30;48.00
28087;DHT22;15392;48.912;8.380;2023-05-07T07:34:04;21.40;48.10
28087;DHT22;15392;48.912;8.380;2023-05-07T07:36:30;21.40;48.10
28087;DHT22;15392;48.912;8.380;2023-05-07T07:38:56;21.40;48.10
28087;DHT22;15392;48.912;8.380;2023-05-07T07:41:21;21.50;48.20
28087;DHT22;15392;48.912;8.380;2023-05-07T07:43:47;21.50;48.10
28087;DHT22;15392;48.912;8.380;2023-05-07T07:46:13;21.60;48.20
28087;DHT22;15392;48.912;8.380;2023-05-07T07:48:39;21.60;48.00
28087;DHT22;15392;48.912;8.380;2023-05-07T07:51:05;21.70;47.90
28087;DHT22;15392;48.912;8.380;2023-05-07T07:53:31;21.60;47.80
28087;DHT22;15392;48.912;8.380;2023-05-07T07:55:56;21.80;47.90
28087;DHT22;15392;48.912;8.380;2023-05-07T07:58:22;21.70;47.90
28087;DHT22;15392;48.912;8.380;2023-05-07T08:00:50;21.80;48.00
28087;DHT22;15392;48.912;8.380;2023-05-07T08:03:16;21.90;47.90
28087;DHT22;15392;48.912;8.380;2023-05-07T08:05:42;21.90;48.00
28087;DHT22;15392;48.912;8.380;2023-05-07T08:08:08;22.00;47.90
28087;DHT22;15392;48.912;8.380;2023-05-07T08:10:34;22.00;47.80
28087;DHT22;15392;48.912;8.380;2023-05-07T08:13:03;22.10;47.80
28087;DHT22;15392;48.912;8.380;2023-05-07T08:15:29;22.10;47.90
28087;DHT22;15392;48.912;8.380;2023-05-07T08:17:55;22.20;47.80
28087;DHT22;15392;48.912;8.380;2023-05-07T08:20:23;22.30;48.00
28087;DHT22;15392;48.912;8.380;2023-05-07T08:22:49;22.40;47.90
28087;DHT22;15392;48.912;8.380;2023-05-07T08:25:15;22.40;47.80
28087;DHT22;15392;48.912;8.380;2023-05-07T08:27:40;22.50;47.80
28087;DHT22;15392;48.912;8.380;2023-05-07T08:30:07;22.60;47.80
28087;DHT22;15392;48.912;8.380;2023-05-07T08:32:33;22.70;47.70
28087;DHT22;15392;48.912;8.380;2023-05-07T08:34:59;22.80;47.50
28087;DHT22;15392;48.912;8.380;2023-05-07T08:37:25;22.90;47.60
28087;DHT22;15392;48.912;8.380;2023-05-07T08:39:51;22.90;47.50
28087;DHT22;15392;48.912;8.380;2023-05-07T08:42:17;23.00;47.60
28087;DHT22;15392;48.912;8.380;2023-05-07T08:44:45;23.10;47.60
28087;DHT22;15392;48.912;8.380;2023-05-07T08:47:12;23.20;47.50
28087;DHT22;15392;48.912;8.380;2023-05-07T08:49:38;23.30;47.40
28087;DHT22;15392;48.912;8.380;2023-05-07T08:52:05;23.40;47.40
28087;DHT22;15392;48.912;8.380;2023-05-07T08:54:31;23.50;47.30
28087;DHT22;15392;48.912;8.380;2023-05-07T08:56:57;23.60;47.30
28087;DHT22;15392;48.912;8.380;2023-05-07T08:59:23;23.80;47.30
28087;DHT22;15392;48.912;8.380;2023-05-07T09:01:49;23.90;47.20
28087;DHT22;15392;48.912;8.380;2023-05-07T09:04:15;24.00;47.10
28087;DHT22;15392;48.912;8.380;2023-05-07T09:06:40;24.10;47.10
28087;DHT22;15392;48.912;8.380;2023-05-07T09:09:07;24.20;46.80
28087;DHT22;15392;48.912;8.380;2023-05-07T09:11:33;24.30;46.90
28087;DHT22;15392;48.912;8.380;2023-05-07T09:13:59;24.40;46.80
28087;DHT22;15392;48.912;8.380;2023-05-07T09:16:29;24.50;46.60
28087;DHT22;15392;48.912;8.380;2023-05-07T09:18:57;24.60;46.60
28087;DHT22;15392;48.912;8.380;2023-05-07T09:21:24;24.70;46.50
28087;DHT22;15392;48.912;8.380;2023-05-07T09:23:52;24.80;46.70
28087;DHT22;15392;48.912;8.380;2023-05-07T09:26:20;24.90;46.60
28087;DHT22;15392;48.912;8.380;2023-05-07T09:28:47;25.00;46.50
28087;DHT22;15392;48.912;8.380;2023-05-07T09:31:12;25.10;46.50
28087;DHT22;15392;48.912;8.380;2023-05-07T09:33:39;25.20;46.40
28087;DHT22;15392;48.912;8.380;2023-05-07T09:36:09;25.30;46.20
28087;DHT22;15392;48.912;8.380;2023-05-07T09:38:36;25.40;46.00
28087;DHT22;15392;48.912;8.380;2023-05-07T09:41:04;25.50;46.20
28087;DHT22;15392;48.912;8.380;2023-05-07T09:43:37;25.70;46.30
28087;DHT22;15392;48.912;8.380;2023-05-07T09:46:11;25.90;46.30
28087;DHT22;15392;48.912;8.380;2023-05-07T09:48:39;26.00;46.40
28087;DHT22;15392;48.912;8.380;2023-05-07T09:53:50;26.40;46.00
28087;DHT22;15392;48.912;8.380;2023-05-07T09:56:18;26.60;46.00
28087;DHT22;15392;48.912;8.380;2023-05-07T09:58:45;26.80;46.10
28087;DHT22;15392;48.912;8.380;2023-05-07T10:01:13;26.90;46.00
28087;DHT22;15392;48.912;8.380;2023-05-07T10:03:43;27.10;45.70
28087;DHT22;15392;48.912;8.380;2023-05-07T10:06:10;27.30;45.40
28087;DHT22;15392;48.912;8.380;2023-05-07T10:08:37;27.40;45.50
28087;DHT22;15392;48.912;8.380;2023-05-07T10:11:04;27.60;45.50
28087;DHT22;15392;48.912;8.380;2023-05-07T10:13:35;27.80;45.50
28087;DHT22;15392;48.912;8.380;2023-05-07T10:16:03;28.00;45.50
28087;DHT22;15392;48.912;8.380;2023-05-07T10:18:31;28.20;45.60
28087;DHT22;15392;48.912;8.380;2023-05-07T10:21:11;28.30;45.30
28087;DHT22;15392;48.912;8.380;2023-05-07T10:23:40;28.60;44.70
28087;DHT22;15392;48.912;8.380;2023-05-07T10:26:08;28.70;44.90
28087;DHT22;15392;48.912;8.380;2023-05-07T10:28:38;28.80;44.40
28087;DHT22;15392;48.912;8.380;2023-05-07T10:33:59;29.00;43.30
28087;DHT22;15392;48.912;8.380;2023-05-07T10:36:27;29.00;43.70
28087;DHT22;15392;48.912;8.380;2023-05-07T10:38:53;29.00;43.60
28087;DHT22;15392;48.912;8.380;2023-05-07T10:41:20;29.10;43.70
28087;DHT22;15392;48.912;8.380;2023-05-07T10:43:46;29.10;43.80
28087;DHT22;15392;48.912;8.380;2023-05-07T10:46:17;29.10;43.60
28087;DHT22;15392;48.912;8.380;2023-05-07T10:51:34;29.20;42.90
28087;DHT22;15392;48.912;8.380;2023-05-07T10:56:41;29.20;43.00
28087;DHT22;15392;48.912;8.380;2023-05-07T11:01:55;29.30;42.70
28087;DHT22;15392;48.912;8.380;2023-05-07T11:04:23;29.30;42.30
28087;DHT22;15392;48.912;8.380;2023-05-07T11:15:12;29.40;42.10
28087;DHT22;15392;48.912;8.380;2023-05-07T11:17:58;29.40;42.20
28087;DHT22;15392;48.912;8.380;2023-05-07T11:20:44;29.50;42.30
28087;DHT22;15392;48.912;8.380;2023-05-07T11:26:09;29.60;42.60
28087;DHT22;15392;48.912;8.380;2023-05-07T11:28:40;29.60;42.80
28087;DHT22;15392;48.912;8.380;2023-05-07T11:31:08;29.70;43.30
28087;DHT22;15392;48.912;8.380;2023-05-07T11:33:36;29.70;43.40
28087;DHT22;15392;48.912;8.380;2023-05-07T11:36:03;29.80;42.70
28087;DHT22;15392;48.912;8.380;2023-05-07T11:38:33;29.80;42.60
28087;DHT22;15392;48.912;8.380;2023-05-07T11:41:00;29.90;43.10
28087;DHT22;15392;48.912;8.380;2023-05-07T11:43:27;29.90;42.60
28087;DHT22;15392;48.912;8.380;2023-05-07T11:45:53;30.00;42.90
28087;DHT22;15392;48.912;8.380;2023-05-07T11:48:21;30.10;42.30
28087;DHT22;15392;48.912;8.380;2023-05-07T11:51:00;30.10;42.50
28087;DHT22;15392;48.912;8.380;2023-05-07T11:53:31;30.20;42.20
28087;DHT22;15392;48.912;8.380;2023-05-07T11:56:06;30.30;42.40
28087;DHT22;15392;48.912;8.380;2023-05-07T11:58:36;30.30;41.80
28087;DHT22;15392;48.912;8.380;2023-05-07T12:01:02;30.40;42.50
28087;DHT22;15392;48.912;8.380;2023-05-07T12:03:29;30.40;42.60
28087;DHT22;15392;48.912;8.380;2023-05-07T12:05:55;30.40;42.10
28087;DHT22;15392;48.912;8.380;2023-05-07T12:08:24;30.40;42.20
28087;DHT22;15392;48.912;8.380;2023-05-07T12:10:50;30.40;41.50
28087;DHT22;15392;48.912;8.380;2023-05-07T12:13:22;30.50;42.10
28087;DHT22;15392;48.912;8.380;2023-05-07T12:15:52;30.50;41.40
28087;DHT22;15392;48.912;8.380;2023-05-07T12:18:19;30.50;41.80
28087;DHT22;15392;48.912;8.380;2023-05-07T12:20:45;30.50;42.20
28087;DHT22;15392;48.912;8.380;2023-05-07T12:23:12;30.50;41.80
28087;DHT22;15392;48.912;8.380;2023-05-07T12:25:41;30.50;42.10
28087;DHT22;15392;48.912;8.380;2023-05-07T12:28:15;30.50;42.40
28087;DHT22;15392;48.912;8.380;2023-05-07T12:30:43;30.50;41.90
28087;DHT22;15392;48.912;8.380;2023-05-07T12:33:10;30.50;41.50
28087;DHT22;15392;48.912;8.380;2023-05-07T12:35:41;30.50;41.90
28087;DHT22;15392;48.912;8.380;2023-05-07T12:38:12;30.50;41.70
28087;DHT22;15392;48.912;8.380;2023-05-07T12:40:46;30.50;41.80
28087;DHT22;15392;48.912;8.380;2023-05-07T12:43:21;30.50;42.00
28087;DHT22;15392;48.912;8.380;2023-05-07T12:45:59;30.50;41.60
28087;DHT22;15392;48.912;8.380;2023-05-07T12:48:26;30.50;42.00
28087;DHT22;15392;48.912;8.380;2023-05-07T12:51:01;30.60;42.40
28087;DHT22;15392;48.912;8.380;2023-05-07T12:53:28;30.60;41.80
28087;DHT22;15392;48.912;8.380;2023-05-07T12:55:59;30.60;42.30
28087;DHT22;15392;48.912;8.380;2023-05-07T12:58:27;30.60;42.20
28087;DHT22;15392;48.912;8.380;2023-05-07T13:00:54;30.60;41.80
28087;DHT22;15392;48.912;8.380;2023-05-07T13:03:31;30.60;42.00
28087;DHT22;15392;48.912;8.380;2023-05-07T13:06:08;30.60;41.80
28087;DHT22;15392;48.912;8.380;2023-05-07T13:08:40;30.60;41.90
28087;DHT22;15392;48.912;8.380;2023-05-07T13:11:10;30.60;41.10
28087;DHT22;15392;48.912;8.380;2023-05-07T13:13:37;30.50;41.90
28087;DHT22;15392;48.912;8.380;2023-05-07T13:16:08;30.50;42.10
28087;DHT22;15392;48.912;8.380;2023-05-07T13:18:37;30.50;41.50
28087;DHT22;15392;48.912;8.380;2023-05-07T13:21:03;30.40;41.60
28087;DHT22;15392;48.912;8.380;2023-05-07T13:23:30;30.40;41.40
28087;DHT22;15392;48.912;8.380;2023-05-07T13:25:56;30.30;41.90
28087;DHT22;15392;48.912;8.380;2023-05-07T13:28:23;30.30;41.80
28087;DHT22;15392;48.912;8.380;2023-05-07T13:30:50;30.30;41.70
28087;DHT22;15392;48.912;8.380;2023-05-07T13:33:17;30.20;41.80
28087;DHT22;15392;48.912;8.380;2023-05-07T13:35:43;30.20;42.20
28087;DHT22;15392;48.912;8.380;2023-05-07T13:38:09;30.10;42.10
28087;DHT22;15392;48.912;8.380;2023-05-07T13:40:35;30.10;42.50
28087;DHT22;15392;48.912;8.380;2023-05-07T13:43:01;30.10;41.70
28087;DHT22;15392;48.912;8.380;2023-05-07T13:45:28;30.00;42.30
28087;DHT22;15392;48.912;8.380;2023-05-07T13:47:57;30.00;42.50
28087;DHT22;15392;48.912;8.380;2023-05-07T13:50:23;29.90;42.00
28087;DHT22;15392;48.912;8.380;2023-05-07T13:52:49;29.90;42.80
28087;DHT22;15392;48.912;8.380;2023-05-07T13:55:23;29.80;42.10
28087;DHT22;15392;48.912;8.380;2023-05-07T13:57:58;29.70;41.80
28087;DHT22;15392;48.912;8.380;2023-05-07T14:00:26;29.70;42.00
28087;DHT22;15392;48.912;8.380;2023-05-07T14:02:53;29.60;42.30
28087;DHT22;15392;48.912;8.380;2023-05-07T14:05:20;29.50;41.70
28087;DHT22;15392;48.912;8.380;2023-05-07T14:07:48;29.50;40.90
28087;DHT22;15392;48.912;8.380;2023-05-07T14:10:17;29.40;39.90
28087;DHT22;15392;48.912;8.380;2023-05-07T14:12:44;29.30;39.60
28087;DHT22;15392;48.912;8.380;2023-05-07T14:15:11;29.20;39.40
28087;DHT22;15392;48.912;8.380;2023-05-07T14:17:37;29.10;39.30
28087;DHT22;15392;48.912;8.380;2023-05-07T14:20:03;29.00;39.50
28087;DHT22;15392;48.912;8.380;2023-05-07T14:22:29;28.90;40.40
28087;DHT22;15392;48.912;8.380;2023-05-07T14:24:55;28.80;40.10
28087;DHT22;15392;48.912;8.380;2023-05-07T14:27:21;28.70;40.10
28087;DHT22;15392;48.912;8.380;2023-05-07T14:29:46;28.60;40.00
28087;DHT22;15392;48.912;8.380;2023-05-07T14:32:19;28.50;40.60
28087;DHT22;15392;48.912;8.380;2023-05-07T14:34:46;28.40;40.60
28087;DHT22;15392;48.912;8.380;2023-05-07T14:37:12;28.40;40.50
28087;DHT22;15392;48.912;8.380;2023-05-07T14:39:38;28.30;40.80
28087;DHT22;15392;48.912;8.380;2023-05-07T14:42:04;28.20;40.30
28087;DHT22;15392;48.912;8.380;2023-05-07T14:44:30;28.20;41.10
28087;DHT22;15392;48.912;8.380;2023-05-07T14:46:56;28.20;41.20
28087;DHT22;15392;48.912;8.380;2023-05-07T14:49:22;28.10;41.40
28087;DHT22;15392;48.912;8.380;2023-05-07T14:51:49;28.10;41.40
28087;DHT22;15392;48.912;8.380;2023-05-07T14:54:15;28.10;41.30
28087;DHT22;15392;48.912;8.380;2023-05-07T14:56:41;28.00;41.30
28087;DHT22;15392;48.912;8.380;2023-05-07T14:59:08;28.00;40.80
28087;DHT22;15392;48.912;8.380;2023-05-07T15:01:35;28.00;41.00
28087;DHT22;15392;48.912;8.380;2023-05-07T15:04:03;28.00;41.10
28087;DHT22;15392;48.912;8.380;2023-05-07T15:06:29;27.90;41.00
28087;DHT22;15392;48.912;8.380;2023-05-07T15:08:56;27.80;40.80
28087;DHT22;15392;48.912;8.380;2023-05-07T15:11:22;27.80;41.30
28087;DHT22;15392;48.912;8.380;2023-05-07T15:13:47;27.70;41.80
28087;DHT22;15392;48.912;8.380;2023-05-07T15:16:14;27.80;41.50
28087;DHT22;15392;48.912;8.380;2023-05-07T15:18:39;27.70;41.70
28087;DHT22;15392;48.912;8.380;2023-05-07T15:21:05;27.70;41.80
28087;DHT22;15392;48.912;8.380;2023-05-07T15:23:31;27.60;42.00
28087;DHT22;15392;48.912;8.380;2023-05-07T15:25:57;27.60;41.90
28087;DHT22;15392;48.912;8.380;2023-05-07T15:28:23;27.60;42.00
28087;DHT22;15392;48.912;8.380;2023-05-07T15:30:50;27.50;42.70
28087;DHT22;15392;48.912;8.380;2023-05-07T15:33:16;27.50;42.20
28087;DHT22;15392;48.912;8.380;2023-05-07T15:35:42;27.50;42.00
28087;DHT22;15392;48.912;8.380;2023-05-07T15:38:07;27.50;42.30
28087;DHT22;15392;48.912;8.380;2023-05-07T15:40:34;27.50;42.40
28087;DHT22;15392;48.912;8.380;2023-05-07T15:43:03;27.40;42.40
28087;DHT22;15392;48.912;8.380;2023-05-07T15:45:29;27.40;42.50
28087;DHT22;15392;48.912;8.380;2023-05-07T15:47:54;27.40;42.60
28087;DHT22;15392;48.912;8.380;2023-05-07T15:50:20;27.30;42.30
28087;DHT22;15392;48.912;8.380;2023-05-07T15:52:46;27.30;42.50
28087;DHT22;15392;48.912;8.380;2023-05-07T15:55:12;27.30;42.60